createdAt,value
2022-12-15T00:01:30.536Z,80.57
2022-12-15T00:03:58.214Z,80.88
2022-12-15T00:06:24.684Z,81.11
2022-12-15T00:08:51.120Z,80.78
2022-12-15T00:11:17.541Z,81.51
2022-12-15T00:13:44.483Z,81.89
2022-12-15T00:16:11.110Z,81.52
2022-12-15T00:18:37.560Z,81.97
2022-12-15T00:21:04.281Z,81.44
2022-12-15T00:23:32.176Z,81.68
2022-12-15T00:25:59.442Z,81.32
2022-12-15T00:28:26.027Z,81.22
2022-12-15T00:30:54.033Z,81.46
2022-12-15T00:33:24.237Z,81.32
2022-12-15T00:35:50.842Z,81.98
2022-12-15T00:38:17.460Z,82.18
2022-12-15T00:40:44.314Z,81.42
2022-12-15T00:43:11.692Z,82.00
2022-12-15T00:45:38.316Z,82.53
2022-12-15T00:48:04.754Z,82.39
2022-12-15T00:50:31.163Z,81.90
2022-12-15T00:52:57.645Z,82.21
2022-12-15T00:55:24.851Z,82.29
2022-12-15T00:57:52.452Z,81.81
2022-12-15T01:00:19.050Z,81.83
2022-12-15T01:02:45.841Z,82.08
2022-12-15T01:05:13.231Z,81.63
2022-12-15T01:07:39.806Z,81.96
2022-12-15T01:10:06.253Z,79.10
2022-12-15T01:12:32.676Z,79.81
2022-12-15T01:14:59.109Z,80.45
2022-12-15T01:17:25.569Z,80.45
2022-12-15T01:19:51.994Z,79.55
2022-12-15T01:22:18.452Z,80.34
2022-12-15T01:24:47.699Z,79.88
2022-12-15T01:27:14.565Z,80.71
2022-12-15T01:29:41.192Z,80.59
2022-12-15T01:32:07.652Z,80.38
2022-12-15T01:34:34.338Z,80.33
2022-12-15T01:37:02.929Z,80.38
2022-12-15T01:39:29.525Z,80.62
2022-12-15T01:41:56.124Z,80.87
2022-12-15T01:44:22.724Z,80.66
2022-12-15T01:46:49.349Z,81.15
2022-12-15T01:49:15.995Z,81.38
2022-12-15T01:51:42.473Z,80.52
2022-12-15T01:54:09.177Z,81.31
2022-12-15T01:56:37.920Z,81.39
2022-12-15T01:59:05.395Z,81.38
2022-12-15T02:01:31.919Z,81.66
2022-12-15T02:03:58.566Z,80.92
2022-12-15T02:06:25.179Z,81.46
2022-12-15T02:08:51.590Z,81.10
2022-12-15T02:11:18.004Z,81.00
2022-12-15T02:13:44.394Z,80.38
2022-12-15T02:16:10.844Z,80.98
2022-12-15T02:18:37.328Z,80.51
2022-12-15T02:21:03.894Z,81.01
2022-12-15T02:23:30.748Z,80.83
2022-12-15T02:25:57.892Z,80.83
2022-12-15T02:28:24.501Z,81.54
2022-12-15T02:30:53.619Z,81.44
2022-12-15T02:33:20.685Z,81.55
2022-12-15T02:35:48.260Z,80.63
2022-12-15T02:38:14.667Z,80.34
2022-12-15T02:40:41.114Z,81.13
2022-12-15T02:43:07.522Z,81.13
2022-12-15T02:45:34.833Z,80.58
2022-12-15T02:48:01.417Z,80.79
2022-12-15T02:50:27.853Z,79.83
2022-12-15T02:52:54.487Z,79.67
2022-12-15T02:55:20.925Z,80.59
2022-12-15T02:57:47.366Z,79.65
2022-12-15T03:00:14.248Z,80.28
2022-12-15T03:02:40.816Z,80.02
2022-12-15T03:05:07.466Z,79.40
2022-12-15T03:07:34.029Z,79.31
2022-12-15T03:10:00.462Z,79.91
2022-12-15T03:12:27.285Z,79.34
2022-12-15T03:14:54.851Z,80.00
2022-12-15T03:17:21.443Z,79.98
2022-12-15T03:19:49.892Z,80.08
2022-12-15T03:22:17.641Z,80.14
2022-12-15T03:24:44.051Z,80.37
2022-12-15T03:27:10.874Z,80.64
2022-12-15T03:29:37.462Z,80.57
2022-12-15T03:32:04.125Z,80.65
2022-12-15T03:34:31.657Z,80.18
2022-12-15T03:36:58.086Z,80.96
2022-12-15T03:39:24.565Z,81.20
2022-12-15T03:41:50.991Z,81.32
2022-12-15T03:44:18.024Z,81.04
2022-12-15T03:46:45.615Z,81.27
2022-12-15T03:49:13.211Z,81.02
2022-12-15T03:51:39.708Z,81.15
2022-12-15T03:54:06.360Z,81.85
2022-12-15T03:56:32.775Z,81.15
2022-12-15T03:58:59.585Z,81.51
2022-12-15T04:01:27.236Z,81.55
2022-12-15T04:04:00.061Z,81.48
2022-12-15T04:06:27.145Z,81.45
2022-12-15T04:08:53.976Z,82.01
2022-12-15T04:11:20.559Z,81.57
2022-12-15T04:13:47.142Z,81.93
2022-12-15T04:16:19.522Z,81.23
2022-12-15T04:18:46.657Z,80.79
2022-12-15T04:21:13.937Z,81.71
2022-12-15T04:23:40.380Z,81.12
2022-12-15T04:26:07.124Z,81.81
2022-12-15T04:28:33.707Z,81.29
2022-12-15T04:31:00.331Z,81.53
2022-12-15T04:33:30.752Z,81.10
2022-12-15T04:35:58.521Z,81.27
2022-12-15T04:38:25.114Z,80.94
2022-12-15T04:40:51.716Z,80.39
2022-12-15T04:43:18.149Z,80.68
2022-12-15T04:45:44.600Z,80.05
2022-12-15T04:48:11.097Z,79.49
2022-12-15T04:50:37.493Z,79.50
2022-12-15T04:53:03.923Z,79.53
2022-12-15T04:55:30.356Z,79.38
2022-12-15T04:57:56.798Z,79.36
2022-12-15T05:00:23.227Z,79.80
2022-12-15T05:02:49.913Z,80.50
2022-12-15T05:05:16.412Z,79.81
2022-12-15T05:07:42.793Z,80.58
2022-12-15T05:10:14.607Z,79.80
2022-12-15T05:12:41.469Z,80.28
2022-12-15T05:15:07.914Z,80.40
2022-12-15T05:17:36.977Z,80.24
2022-12-15T05:20:07.637Z,80.27
2022-12-15T05:22:34.057Z,80.04
2022-12-15T05:25:00.467Z,80.44
2022-12-15T05:27:26.858Z,80.14
2022-12-15T05:29:53.273Z,80.16
2022-12-15T05:32:19.718Z,81.19
2022-12-15T05:34:46.143Z,80.77
2022-12-15T05:37:12.549Z,81.32
2022-12-15T05:39:38.987Z,80.70
2022-12-15T05:42:05.494Z,81.70
2022-12-15T05:44:31.877Z,81.53
2022-12-15T05:46:58.267Z,81.50
2022-12-15T05:49:24.698Z,81.29
2022-12-15T05:51:51.162Z,81.15
2022-12-15T05:54:17.589Z,82.01
2022-12-15T05:56:44.023Z,82.35
2022-12-15T05:59:10.452Z,82.19
2022-12-15T06:01:36.996Z,82.49
2022-12-15T06:04:03.457Z,80.45
2022-12-15T06:06:29.887Z,82.38
2022-12-15T06:08:56.315Z,82.37
2022-12-15T06:11:22.829Z,81.79
2022-12-15T06:13:49.352Z,82.12
2022-12-15T06:16:15.812Z,82.04
2022-12-15T06:18:42.258Z,82.31
2022-12-15T06:21:08.668Z,82.00
2022-12-15T06:23:35.150Z,82.67
2022-12-15T06:26:01.640Z,83.30
2022-12-15T06:28:28.045Z,84.05
2022-12-15T06:30:54.502Z,84.21
2022-12-15T06:33:20.990Z,83.73
2022-12-15T06:35:47.426Z,83.05
2022-12-15T06:38:13.856Z,82.86
2022-12-15T06:40:40.325Z,84.14
2022-12-15T06:43:06.744Z,83.99
2022-12-15T06:45:33.170Z,84.48
2022-12-15T06:48:01.522Z,85.05
2022-12-15T06:50:28.370Z,85.41
2022-12-15T06:52:54.824Z,85.08
2022-12-15T06:55:21.238Z,85.37
2022-12-15T06:57:47.687Z,84.05
2022-12-15T07:00:14.150Z,83.24
2022-12-15T07:02:40.747Z,83.78
2022-12-15T07:05:07.484Z,84.12
2022-12-15T07:07:34.170Z,82.78
2022-12-15T07:10:00.639Z,82.39
2022-12-15T07:12:27.090Z,82.19
2022-12-15T07:14:53.873Z,83.07
2022-12-15T07:17:20.319Z,83.91
2022-12-15T07:19:46.753Z,83.94
2022-12-15T07:22:13.160Z,84.00
2022-12-15T07:24:39.694Z,84.61
2022-12-15T07:27:06.109Z,84.16
2022-12-15T07:29:32.506Z,84.99
2022-12-15T07:31:58.992Z,84.90
2022-12-15T07:34:25.449Z,84.66
2022-12-15T07:36:52.858Z,84.37
2022-12-15T07:39:19.467Z,84.47
2022-12-15T07:41:46.033Z,82.65
2022-12-15T07:44:12.448Z,81.96
2022-12-15T07:46:38.977Z,82.08
2022-12-15T07:49:05.473Z,83.42
2022-12-15T07:51:31.913Z,83.99
2022-12-15T07:53:58.330Z,83.97
2022-12-15T07:56:24.748Z,84.23
2022-12-15T07:58:51.237Z,83.50
2022-12-15T08:01:17.764Z,84.01
2022-12-15T08:03:44.312Z,83.62
2022-12-15T08:06:10.931Z,83.36
2022-12-15T08:08:37.415Z,83.74
2022-12-15T08:11:03.868Z,83.25
2022-12-15T08:14:01.281Z,83.59
2022-12-15T08:16:16.770Z,83.79
2022-12-15T08:18:43.213Z,82.90
2022-12-15T08:21:09.631Z,83.75
2022-12-15T08:23:36.127Z,83.79
2022-12-15T08:26:02.660Z,83.64
2022-12-15T08:28:29.132Z,83.61
2022-12-15T08:30:55.588Z,82.88
2022-12-15T08:33:22.037Z,83.59
2022-12-15T08:35:56.923Z,83.26
2022-12-15T08:38:23.830Z,83.57
2022-12-15T08:40:50.270Z,83.33
2022-12-15T08:43:16.724Z,83.98
2022-12-15T08:45:43.249Z,83.29
2022-12-15T08:48:09.734Z,83.81
2022-12-15T08:50:36.175Z,84.14
2022-12-15T08:53:29.495Z,83.88
2022-12-15T08:55:49.104Z,83.70
2022-12-15T08:58:15.531Z,84.20
2022-12-15T09:00:41.946Z,83.95
2022-12-15T09:03:08.387Z,83.42
2022-12-15T09:05:34.870Z,83.70
2022-12-15T09:08:06.389Z,83.66
2022-12-15T09:10:33.223Z,83.71
2022-12-15T09:12:59.694Z,83.79
2022-12-15T09:15:45.455Z,84.05
2022-12-15T09:18:12.513Z,83.58
2022-12-15T09:20:38.941Z,83.05
2022-12-15T09:23:05.409Z,82.79
2022-12-15T09:25:31.847Z,83.32
2022-12-15T09:27:58.263Z,83.65
2022-12-15T09:30:24.782Z,83.73
2022-12-15T09:32:51.304Z,83.73
2022-12-15T09:35:17.751Z,83.89
2022-12-15T09:37:48.493Z,83.43
2022-12-15T09:40:18.087Z,83.03
2022-12-15T09:42:44.983Z,83.41
2022-12-15T09:45:11.468Z,83.10
2022-12-15T09:47:38.179Z,83.96
2022-12-15T09:50:04.769Z,83.46
2022-12-15T09:52:32.369Z,83.66
2022-12-15T09:54:59.077Z,84.06
2022-12-15T09:57:26.604Z,83.91
2022-12-15T09:59:54.197Z,83.45
2022-12-15T10:02:20.899Z,83.83
2022-12-15T10:04:50.730Z,83.70
2022-12-15T10:07:18.014Z,83.50
2022-12-15T10:09:44.426Z,83.64
2022-12-15T10:12:11.558Z,83.50
2022-12-15T10:14:38.044Z,84.10
2022-12-15T10:17:04.493Z,83.48
2022-12-15T10:19:30.956Z,83.69
2022-12-15T10:21:57.552Z,83.06
2022-12-15T10:25:07.400Z,83.13
2022-12-15T10:27:10.949Z,83.46
2022-12-15T10:29:37.896Z,83.23
2022-12-15T10:32:04.339Z,83.40
2022-12-15T10:34:30.841Z,83.98
2022-12-15T10:36:57.279Z,82.96
2022-12-15T10:39:23.719Z,83.42
2022-12-15T10:41:50.156Z,83.31
2022-12-15T10:44:16.580Z,83.68
2022-12-15T10:46:43.171Z,83.28
2022-12-15T10:49:09.599Z,83.53
2022-12-15T10:51:36.046Z,83.65
2022-12-15T10:54:02.536Z,83.44
2022-12-15T10:56:33.317Z,82.92
2022-12-15T10:59:00.469Z,82.78
2022-12-15T11:01:27.537Z,82.95
2022-12-15T11:03:55.286Z,82.86
2022-12-15T11:06:22.663Z,82.34
2022-12-15T11:08:49.354Z,82.51
2022-12-15T11:11:16.821Z,81.99
2022-12-15T11:13:43.832Z,82.20
2022-12-15T11:16:11.042Z,82.16
2022-12-15T11:18:37.632Z,82.05
2022-12-15T11:21:05.250Z,82.39
2022-12-15T11:23:33.276Z,81.83
2022-12-15T11:26:04.907Z,82.58
2022-12-15T11:28:33.419Z,82.53
2022-12-15T11:30:59.878Z,82.54
2022-12-15T11:33:26.320Z,82.73
2022-12-15T11:35:52.908Z,82.37
2022-12-15T11:38:19.568Z,82.08
2022-12-15T11:40:46.023Z,82.42
2022-12-15T11:43:12.469Z,82.64
2022-12-15T11:45:39.247Z,82.23
2022-12-15T11:48:05.837Z,82.19
2022-12-15T11:50:32.436Z,82.21
2022-12-15T11:52:59.005Z,81.54
2022-12-15T11:55:31.045Z,82.06
2022-12-15T11:58:00.754Z,82.04
2022-12-15T12:00:27.264Z,81.20
2022-12-15T12:02:53.711Z,82.30
2022-12-15T12:05:21.034Z,81.82
2022-12-15T12:07:49.063Z,82.01
2022-12-15T12:10:15.571Z,81.68
2022-12-15T12:12:42.107Z,81.83
2022-12-15T12:15:10.435Z,82.13
2022-12-15T12:17:37.020Z,81.19
2022-12-15T12:20:09.509Z,81.62
2022-12-15T12:22:38.227Z,81.18
2022-12-15T12:25:04.632Z,81.36
2022-12-15T12:27:31.406Z,81.80
2022-12-15T12:29:58.013Z,81.66
2022-12-15T12:32:25.608Z,81.92
2022-12-15T12:34:52.197Z,81.93
2022-12-15T12:37:38.668Z,82.16
2022-12-15T12:40:05.105Z,81.68
2022-12-15T12:42:31.498Z,82.05
2022-12-15T12:44:57.951Z,81.85
2022-12-15T12:47:25.425Z,81.83
2022-12-15T12:49:51.875Z,82.15
2022-12-15T12:52:18.363Z,82.31
2022-12-15T12:54:46.040Z,81.14
2022-12-15T12:57:15.639Z,81.43
2022-12-15T13:08:11.355Z,80.93
2022-12-15T13:10:58.562Z,81.58
2022-12-15T13:13:30.249Z,81.36
2022-12-15T13:15:58.475Z,82.60
2022-12-15T13:18:27.376Z,82.37
2022-12-15T13:20:56.592Z,82.48
2022-12-15T13:23:26.009Z,81.22
2022-12-15T13:25:56.419Z,81.85
2022-12-15T13:28:25.470Z,81.75
2022-12-15T13:30:54.690Z,80.73
2022-12-15T13:33:23.678Z,80.83
2022-12-15T13:35:51.264Z,81.77
2022-12-15T13:38:20.869Z,82.23
2022-12-15T13:40:50.559Z,81.83
2022-12-15T13:43:19.052Z,81.39
2022-12-15T13:45:48.894Z,81.38
2022-12-15T13:48:18.366Z,82.32
2022-12-15T13:50:51.104Z,82.26
2022-12-15T13:53:19.749Z,82.70
2022-12-15T13:55:51.104Z,81.90
2022-12-15T13:58:17.779Z,82.42
2022-12-15T14:00:46.365Z,82.04
2022-12-15T14:03:16.028Z,82.76
2022-12-15T14:05:43.572Z,81.59
2022-12-15T14:08:12.198Z,82.14
2022-12-15T14:10:39.794Z,81.45
2022-12-15T14:13:15.874Z,81.51
2022-12-15T14:15:44.056Z,82.20
2022-12-15T14:18:12.674Z,82.01
2022-12-15T14:20:40.259Z,82.14
2022-12-15T14:23:06.857Z,82.08
2022-12-15T14:25:33.449Z,81.75
2022-12-15T14:28:01.050Z,82.14
2022-12-15T14:30:27.538Z,82.10
2022-12-15T14:32:55.219Z,81.63
2022-12-15T14:35:21.810Z,81.86
2022-12-15T14:37:48.467Z,82.46
2022-12-15T14:40:16.064Z,82.49
2022-12-15T14:42:43.640Z,82.69
2022-12-15T14:45:10.214Z,81.97
2022-12-15T14:47:37.813Z,81.45
2022-12-15T14:50:05.395Z,82.77
2022-12-15T14:52:31.979Z,83.68
2022-12-15T14:54:59.589Z,83.66
2022-12-15T14:57:26.179Z,83.04
2022-12-15T14:59:52.763Z,83.36
2022-12-15T15:02:20.435Z,82.68
2022-12-15T15:04:47.940Z,82.28
2022-12-15T15:07:14.402Z,82.15
2022-12-15T15:09:40.960Z,81.86
2022-12-15T15:12:07.423Z,82.05
2022-12-15T15:14:34.327Z,82.03
2022-12-15T15:17:03.026Z,81.42
2022-12-15T15:19:32.351Z,82.09
2022-12-15T15:22:00.148Z,82.42
2022-12-15T15:24:27.743Z,82.12
2022-12-15T15:26:54.381Z,82.47
2022-12-15T15:29:21.202Z,81.25
2022-12-15T15:31:47.666Z,81.73
2022-12-15T15:34:14.138Z,81.80
2022-12-15T15:36:40.791Z,82.00
2022-12-15T15:39:08.293Z,82.03
2022-12-15T15:41:35.888Z,81.71
2022-12-15T15:44:02.479Z,82.28
2022-12-15T15:46:29.140Z,81.95
2022-12-15T15:48:56.652Z,82.22
2022-12-15T15:51:23.245Z,82.06
2022-12-15T15:53:50.823Z,81.73
2022-12-15T15:56:17.407Z,81.74
2022-12-15T15:58:43.921Z,81.71
2022-12-15T16:01:13.264Z,82.21
2022-12-15T16:03:41.295Z,83.23
2022-12-15T16:06:08.368Z,82.88
2022-12-15T16:08:35.223Z,81.65
2022-12-15T16:11:01.994Z,82.08
2022-12-15T16:13:28.522Z,82.87
2022-12-15T16:15:55.017Z,81.87
2022-12-15T16:18:21.471Z,81.45
2022-12-15T16:20:47.899Z,82.01
2022-12-15T16:23:14.324Z,81.89
2022-12-15T16:25:48.452Z,81.71
2022-12-15T16:28:15.082Z,82.24
2022-12-15T16:30:41.619Z,82.66
2022-12-15T16:33:08.111Z,82.22
2022-12-15T16:35:34.558Z,82.26
2022-12-15T16:38:00.987Z,82.37
2022-12-15T16:40:27.422Z,82.84
2022-12-15T16:42:53.831Z,82.70
2022-12-15T16:45:20.238Z,82.69
2022-12-15T16:47:46.650Z,81.94
2022-12-15T16:50:13.118Z,82.24
2022-12-15T16:52:39.527Z,82.00
2022-12-15T16:55:05.938Z,82.19
2022-12-15T16:57:32.322Z,82.88
2022-12-15T16:59:58.698Z,82.19
2022-12-15T17:02:27.712Z,82.74
2022-12-15T17:04:54.371Z,81.55
2022-12-15T17:07:21.190Z,80.87
2022-12-15T17:09:47.647Z,81.10
2022-12-15T17:12:14.058Z,82.33
2022-12-15T17:14:41.038Z,82.28
2022-12-15T17:17:07.810Z,83.02
2022-12-15T17:19:34.230Z,83.38
2022-12-15T17:22:00.646Z,82.82
2022-12-15T17:24:27.131Z,83.12
2022-12-15T17:26:53.579Z,83.08
2022-12-15T17:29:19.994Z,82.75
2022-12-15T17:31:46.489Z,83.58
2022-12-15T17:34:13.006Z,82.95
2022-12-15T17:36:39.501Z,82.49
2022-12-15T17:39:05.907Z,82.40
2022-12-15T17:44:36.179Z,82.74
2022-12-15T17:47:03.558Z,82.67
2022-12-15T17:49:35.106Z,82.59
2022-12-15T17:52:02.351Z,83.13
2022-12-15T17:54:28.779Z,82.74
2022-12-15T17:56:55.206Z,82.93
2022-12-15T17:59:21.643Z,83.43
2022-12-15T18:01:48.169Z,83.50
2022-12-15T18:04:14.733Z,83.06
2022-12-15T18:06:41.214Z,82.15
2022-12-15T18:09:07.650Z,82.94
2022-12-15T18:11:34.090Z,82.10
2022-12-15T18:14:00.531Z,83.04
2022-12-15T18:16:27.057Z,83.17
2022-12-15T18:18:53.573Z,83.23
2022-12-15T18:21:19.986Z,83.31
2022-12-15T18:23:46.423Z,83.95
2022-12-15T18:26:12.822Z,84.07
2022-12-15T18:28:39.238Z,84.00
2022-12-15T18:31:05.679Z,83.12
2022-12-15T18:33:32.475Z,83.29
2022-12-15T18:35:59.143Z,82.02
2022-12-15T18:38:25.551Z,82.26
2022-12-15T18:40:51.973Z,83.31
2022-12-15T18:43:18.496Z,83.45
2022-12-15T18:45:44.891Z,83.64
2022-12-15T18:48:11.332Z,83.00
2022-12-15T18:50:37.755Z,83.37
2022-12-15T18:53:04.239Z,83.03
2022-12-15T18:55:30.684Z,82.89
2022-12-15T18:57:57.103Z,82.33
2022-12-15T19:00:23.533Z,83.00
2022-12-15T19:02:50.084Z,82.83
2022-12-15T19:05:16.562Z,82.31
2022-12-15T19:07:42.972Z,83.19
2022-12-15T19:10:09.415Z,82.69
2022-12-15T19:12:35.881Z,82.56
2022-12-15T19:15:02.392Z,82.25
2022-12-15T19:17:28.816Z,82.45
2022-12-15T19:19:55.228Z,81.97
2022-12-15T19:22:21.658Z,81.59
2022-12-15T19:24:48.231Z,82.71
2022-12-15T19:27:14.618Z,82.48
2022-12-15T19:29:41.038Z,82.58
2022-12-15T19:32:07.449Z,82.18
2022-12-15T19:34:33.846Z,82.68
2022-12-15T19:37:00.253Z,82.33
2022-12-15T19:39:26.682Z,82.42
2022-12-15T19:41:53.105Z,83.16
2022-12-15T19:44:21.356Z,82.85
2022-12-15T19:46:47.782Z,82.95
2022-12-15T19:49:14.235Z,82.65
2022-12-15T19:51:40.678Z,82.81
2022-12-15T19:54:07.136Z,82.72
2022-12-15T19:56:33.579Z,82.68
2022-12-15T19:58:59.972Z,82.56
2022-12-15T20:01:26.475Z,83.33
2022-12-15T20:03:52.989Z,83.35
2022-12-15T20:06:19.394Z,83.02
2022-12-15T20:08:45.809Z,83.17
2022-12-15T20:11:12.250Z,82.71
2022-12-15T20:13:38.670Z,83.11
2022-12-15T20:16:05.183Z,82.93
2022-12-15T20:18:31.960Z,82.89
2022-12-15T20:20:58.700Z,82.38
2022-12-15T20:23:25.206Z,82.63
2022-12-15T20:25:51.646Z,82.73
2022-12-15T20:28:18.027Z,82.46
2022-12-15T20:30:44.463Z,82.95
2022-12-15T20:33:11.147Z,83.23
2022-12-15T20:35:37.543Z,82.62
2022-12-15T20:38:03.996Z,82.84
2022-12-15T20:40:30.398Z,82.87
2022-12-15T20:42:56.820Z,82.07
2022-12-15T20:45:23.249Z,82.12
2022-12-15T20:47:49.654Z,80.90
2022-12-15T20:50:16.237Z,82.47
2022-12-15T20:52:42.669Z,80.45
2022-12-15T20:55:09.093Z,82.07
2022-12-15T20:57:35.491Z,82.56
2022-12-15T21:00:01.923Z,82.27
2022-12-15T21:02:28.499Z,82.27
2022-12-15T21:04:54.959Z,82.35
2022-12-15T21:07:21.460Z,82.08
2022-12-15T21:09:47.871Z,81.85
2022-12-15T21:12:14.274Z,82.95
2022-12-15T21:14:40.682Z,82.86
2022-12-15T21:17:07.241Z,81.98
2022-12-15T21:19:33.728Z,83.12
2022-12-15T21:22:00.157Z,82.42
2022-12-15T21:24:26.590Z,82.14
2022-12-15T21:26:53.006Z,81.57
2022-12-15T21:29:20.128Z,82.35
2022-12-15T21:31:46.508Z,81.76
2022-12-15T21:34:12.952Z,81.99
2022-12-15T21:36:39.455Z,82.68
2022-12-15T21:39:05.839Z,82.59
2022-12-15T21:41:32.222Z,82.48
2022-12-15T21:43:58.644Z,82.71
2022-12-15T21:46:27.943Z,82.48
2022-12-15T21:48:54.645Z,82.21
2022-12-15T21:51:21.111Z,82.46
2022-12-15T21:53:47.506Z,82.51
2022-12-15T21:56:13.938Z,81.83
2022-12-15T21:58:40.331Z,81.73
2022-12-15T22:01:06.757Z,81.73
2022-12-15T22:03:33.198Z,81.62
2022-12-15T22:05:59.669Z,81.59
2022-12-15T22:08:26.106Z,82.19
2022-12-15T22:10:52.548Z,80.93
2022-12-15T22:13:21.268Z,81.73
2022-12-15T22:15:47.658Z,81.24
2022-12-15T22:18:14.120Z,81.82
2022-12-15T22:20:40.525Z,81.92
2022-12-15T22:23:06.966Z,81.54
2022-12-15T22:25:33.385Z,81.27
2022-12-15T22:27:59.791Z,81.92
2022-12-15T22:30:26.218Z,81.68
2022-12-15T22:32:52.631Z,81.54
2022-12-15T22:35:20.275Z,82.09
2022-12-15T22:37:46.690Z,82.48
2022-12-15T22:40:13.105Z,82.47
2022-12-15T22:42:39.543Z,81.53
2022-12-15T22:45:05.951Z,81.87
2022-12-15T22:47:32.369Z,82.63
2022-12-15T22:49:58.800Z,82.48
2022-12-15T22:52:25.216Z,82.92
2022-12-15T22:54:51.646Z,83.38
2022-12-15T22:57:18.310Z,82.80
2022-12-15T22:59:44.756Z,82.70
2022-12-15T23:02:11.150Z,82.05
2022-12-15T23:04:37.537Z,82.42
2022-12-15T23:07:03.967Z,82.17
2022-12-15T23:09:30.425Z,81.95
2022-12-15T23:11:56.844Z,82.28
2022-12-15T23:14:23.274Z,82.21
2022-12-15T23:16:49.681Z,82.15
2022-12-15T23:19:16.980Z,82.40
2022-12-15T23:21:43.403Z,82.20
2022-12-15T23:24:09.814Z,81.87
2022-12-15T23:26:36.266Z,82.65
2022-12-15T23:29:02.694Z,83.13
2022-12-15T23:31:29.186Z,82.03
2022-12-15T23:33:55.714Z,82.93
2022-12-15T23:36:22.131Z,82.20
2022-12-15T23:38:48.549Z,82.46
2022-12-15T23:41:15.050Z,82.74
2022-12-15T23:43:41.444Z,82.30
2022-12-15T23:46:08.373Z,82.29
2022-12-15T23:48:34.873Z,82.67
2022-12-15T23:51:01.297Z,82.35
2022-12-15T23:53:27.739Z,82.01
2022-12-15T23:55:54.173Z,82.50
2022-12-15T23:58:20.611Z,82.24
